createdAt,value
2023-01-19T05:34:04.052Z,30.90
2023-01-19T05:39:05.774Z,30.73
2023-01-19T05:44:07.525Z,30.80
2023-01-19T05:49:09.409Z,30.67
2023-01-19T05:54:15.401Z,31.17
2023-01-19T05:59:23.954Z,30.00
2023-01-19T06:04:26.517Z,31.17
2023-01-19T06:09:28.407Z,29.80
2023-01-19T06:14:30.044Z,29.10
2023-01-19T06:19:32.350Z,29.87
2023-01-19T06:24:33.996Z,30.77
2023-01-19T06:29:35.618Z,29.63
2023-01-19T06:34:37.320Z,29.33
2023-01-19T06:39:41.268Z,28.77
2023-01-19T06:44:47.541Z,30.20
2023-01-19T06:49:49.568Z,30.67
2023-01-19T06:54:51.139Z,30.97
2023-01-19T06:59:53.082Z,30.27
2023-01-19T07:04:55.358Z,36.37
2023-01-19T07:09:56.960Z,31.27
2023-01-19T07:14:58.730Z,29.93
2023-01-19T07:20:00.372Z,31.00
2023-01-19T07:25:02.075Z,30.43
2023-01-19T07:30:04.645Z,30.80
2023-01-19T07:35:06.687Z,29.60
2023-01-19T07:40:09.167Z,31.20
2023-01-19T07:45:11.069Z,29.87
2023-01-19T07:50:13.985Z,31.40
2023-01-19T07:55:15.873Z,29.30
2023-01-19T08:00:24.734Z,29.80
2023-01-19T08:05:27.615Z,30.57
2023-01-19T08:10:29.497Z,29.57
2023-01-19T08:15:31.266Z,28.73
2023-01-19T08:20:32.941Z,28.57
2023-01-19T08:25:37.809Z,29.37
2023-01-19T08:30:40.600Z,28.53
2023-01-19T08:35:47.259Z,29.37
2023-01-19T08:40:49.042Z,28.53
2023-01-19T08:45:52.193Z,28.60
2023-01-19T08:50:54.017Z,31.13
2023-01-19T08:55:57.772Z,28.10
2023-01-19T09:01:01.992Z,29.43
2023-01-19T09:06:08.869Z,28.70
2023-01-19T09:11:12.423Z,29.57
2023-01-19T09:16:16.046Z,30.23
2023-01-19T09:21:18.743Z,30.07
2023-01-19T09:26:22.469Z,30.40
2023-01-19T09:31:24.337Z,29.80
2023-01-19T09:36:26.160Z,30.43
2023-01-19T09:41:27.936Z,30.13
2023-01-19T09:46:39.900Z,30.47
2023-01-19T09:51:45.363Z,31.33
2023-01-19T09:56:52.141Z,31.07
2023-01-19T10:02:14.574Z,31.07
2023-01-19T10:07:29.657Z,33.83
2023-01-19T10:12:57.547Z,33.90
2023-01-19T10:18:21.270Z,34.53
2023-01-19T10:23:34.975Z,34.23
2023-01-19T10:28:39.040Z,35.77
2023-01-19T10:33:41.105Z,35.10
2023-01-19T10:38:43.212Z,33.67
2023-01-19T10:43:47.181Z,33.57
2023-01-19T10:48:52.278Z,33.47
2023-01-19T10:54:02.828Z,34.40
2023-01-19T10:59:07.037Z,34.30
2023-01-19T11:04:22.276Z,32.30
2023-01-19T11:09:24.066Z,31.87
2023-01-19T11:14:30.849Z,32.97
2023-01-19T11:19:33.908Z,33.43
2023-01-19T11:24:38.586Z,33.37
2023-01-19T11:29:40.412Z,32.47
2023-01-19T11:34:42.236Z,32.07
2023-01-19T11:39:50.587Z,31.13
2023-01-19T11:44:57.920Z,31.30
2023-01-19T11:50:29.917Z,32.17
2023-01-19T11:55:48.747Z,32.10
2023-01-19T12:00:57.044Z,32.17
2023-01-19T12:06:06.969Z,31.33
2023-01-19T12:11:12.715Z,31.03
2023-01-19T12:16:20.851Z,31.83
2023-01-19T12:21:22.687Z,31.67
2023-01-19T12:26:37.430Z,32.20
2023-01-19T12:31:40.810Z,31.43
2023-01-19T12:36:44.055Z,30.77
2023-01-19T12:41:48.804Z,31.07
2023-01-19T12:46:57.390Z,32.47
2023-01-19T12:52:21.047Z,31.67
2023-01-19T12:57:50.444Z,30.80
2023-01-19T13:02:56.312Z,29.50
2023-01-19T13:08:07.228Z,28.50
2023-01-19T13:13:29.518Z,28.87
2023-01-19T13:18:38.415Z,28.83
2023-01-19T13:23:52.315Z,28.00
2023-01-19T13:28:57.491Z,27.10
2023-01-19T13:34:01.564Z,27.13
2023-01-19T13:39:28.953Z,27.20
2023-01-19T13:44:42.339Z,28.03
2023-01-19T13:49:46.698Z,27.40
2023-01-19T13:54:55.671Z,27.93
2023-01-19T14:00:09.867Z,26.17
2023-01-19T14:05:20.060Z,27.83
2023-01-19T14:10:21.697Z,28.03
2023-01-19T14:15:23.517Z,27.03
2023-01-19T14:20:30.434Z,27.10
2023-01-19T14:25:34.668Z,26.77
2023-01-19T14:30:36.859Z,25.73
2023-01-19T14:35:38.651Z,25.80
2023-01-19T14:40:40.800Z,24.87
2023-01-19T14:45:47.626Z,25.40
2023-01-19T14:51:02.875Z,25.97
2023-01-19T14:56:06.904Z,26.60
2023-01-19T15:01:09.241Z,26.17
2023-01-19T15:06:16.682Z,26.97
2023-01-19T15:11:22.777Z,26.87
2023-01-19T15:16:27.565Z,25.57
2023-01-19T15:21:29.511Z,26.07
2023-01-19T15:26:31.183Z,26.70
2023-01-19T15:31:32.853Z,24.50
2023-01-19T15:36:34.602Z,24.10
2023-01-19T15:41:38.396Z,24.03
2023-01-19T15:46:41.099Z,25.37
2023-01-19T15:51:42.700Z,24.30
2023-01-19T15:56:59.961Z,27.33
2023-01-19T16:02:01.924Z,27.40
2023-01-19T16:07:03.946Z,24.63
2023-01-19T16:12:05.859Z,24.50
2023-01-19T16:17:07.554Z,23.03
2023-01-19T16:22:11.310Z,23.33
2023-01-19T16:27:12.926Z,23.70
2023-01-19T16:32:15.270Z,24.37
2023-01-19T16:37:18.386Z,23.30
2023-01-19T16:42:20.348Z,23.93
2023-01-19T16:47:22.094Z,26.60
2023-01-19T16:52:23.766Z,31.00
2023-01-19T16:57:25.526Z,29.43
2023-01-19T17:02:27.268Z,29.13
2023-01-19T17:07:28.930Z,28.80
2023-01-19T17:12:32.229Z,29.30
2023-01-19T17:17:36.271Z,28.37
2023-01-19T17:22:37.888Z,28.53
2023-01-19T17:27:39.725Z,27.10
2023-01-19T17:32:42.688Z,30.57
2023-01-19T17:37:44.478Z,32.03
2023-01-19T17:42:46.184Z,32.00
2023-01-19T17:47:50.955Z,32.40
2023-01-19T17:52:52.918Z,32.77
2023-01-19T17:57:54.544Z,32.03
2023-01-19T18:02:56.167Z,31.60
2023-01-19T18:08:00.173Z,30.40
2023-01-19T18:13:01.873Z,37.37
2023-01-19T18:18:04.529Z,36.73
2023-01-19T18:23:09.397Z,31.73
2023-01-19T18:28:10.980Z,30.53
2023-01-19T18:33:12.592Z,30.33
2023-01-19T18:38:14.837Z,31.00
2023-01-19T18:43:16.438Z,31.43
2023-01-19T18:48:18.192Z,30.53
2023-01-19T18:53:20.573Z,30.10
2023-01-19T18:58:22.978Z,29.60
2023-01-19T19:03:24.968Z,29.53
2023-01-19T19:08:26.621Z,28.50
2023-01-19T19:13:28.366Z,30.53
2023-01-19T19:18:30.949Z,29.03
2023-01-19T19:23:32.661Z,30.60
2023-01-19T19:28:37.257Z,30.13
2023-01-19T19:33:39.940Z,33.33
2023-01-19T19:38:42.942Z,34.57
2023-01-19T19:43:45.003Z,36.13
2023-01-19T19:48:48.163Z,37.63
2023-01-19T19:53:51.838Z,38.13
2023-01-19T19:58:56.246Z,34.77
2023-01-19T20:04:00.293Z,32.47
2023-01-19T20:09:02.070Z,32.70
2023-01-19T20:14:08.428Z,31.00
2023-01-19T20:19:10.549Z,30.10
2023-01-19T20:24:19.187Z,31.20
2023-01-19T20:29:21.421Z,29.80
2023-01-19T20:34:28.162Z,30.00
2023-01-19T20:39:33.359Z,30.10
2023-01-19T20:44:35.146Z,30.00
2023-01-19T20:49:36.910Z,29.87
2023-01-19T20:54:39.890Z,31.53
2023-01-19T20:59:41.625Z,32.87
